Time,TemperatureF,DewpointF,PressureIn,WindDirection,WindDirectionDegrees,WindSpeedMPH,WindSpeedGustMPH,Humidity,HourlyPrecipIn,Conditions,Clouds,dailyrainin,SoftwareType,DateUTC
2013-10-25 00:01:00,43.5,28.0,30.33,SSW,202,2.0,6.0,55,0.00,,,0.00,weatherlink.com 1.10,2013-10-25 06:01:00,
2013-10-25 00:16:00,43.6,28.0,30.33,SW,221,1.0,5.0,55,0.00,,,0.00,weatherlink.com 1.10,2013-10-25 06:16:00,
2013-10-25 00:32:00,43.8,28.0,30.33,SSW,205,4.0,7.0,54,0.00,,,0.00,weatherlink.com 1.10,2013-10-25 06:32:00,
2013-10-25 00:47:00,44.3,28.0,30.33,SW,225,4.0,7.0,53,0.00,,,0.00,weatherlink.com 1.10,2013-10-25 06:47:00,
2013-10-25 01:02:00,44.3,28.0,30.33,SW,215,1.0,9.0,53,0.00,,,0.00,weatherlink.com 1.10,2013-10-25 07:02:00,
2013-10-25 01:17:00,44.1,28.0,30.34,WNW,284,0.0,2.0,53,0.00,,,0.00,weatherlink.com 1.10,2013-10-25 07:17:00,
2013-10-25 01:32:00,43.1,28.0,30.34,WNW,284,2.0,3.0,55,0.00,,,0.00,weatherlink.com 1.10,2013-10-25 07:32:00,
2013-10-25 01:47:00,41.8,27.0,30.34,WNW,284,0.0,2.0,57,0.00,,,0.00,weatherlink.com 1.10,2013-10-25 07:47:00,
2013-10-25 02:02:00,40.1,27.0,30.34,WNW,284,0.0,0.0,60,0.00,,,0.00,weatherlink.com 1.10,2013-10-25 08:02:00,
2013-10-25 02:17:00,38.9,28.0,30.34,WNW,284,0.0,0.0,64,0.00,,,0.00,weatherlink.com 1.10,2013-10-25 08:17:00,
2013-10-25 02:32:00,37.8,27.0,30.35,WNW,284,0.0,3.0,65,0.00,,,0.00,weatherlink.com 1.10,2013-10-25 08:32:00,
2013-10-25 02:47:00,36.8,27.0,30.35,WNW,284,1.0,2.0,68,0.00,,,0.00,weatherlink.com 1.10,2013-10-25 08:47:00,
2013-10-25 03:02:00,36.2,28.0,30.35,WNW,283,1.0,3.0,71,0.00,,,0.00,weatherlink.com 1.10,2013-10-25 09:02:00,
2013-10-25 03:17:00,36.1,28.0,30.35,SSW,206,1.0,4.0,73,0.00,,,0.00,weatherlink.com 1.10,2013-10-25 09:17:00,
2013-10-25 03:32:00,36.7,28.0,30.34,SSW,207,0.0,3.0,72,0.00,,,0.00,weatherlink.com 1.10,2013-10-25 09:32:00,
2013-10-25 03:47:00,37.2,28.0,30.34,SW,217,3.0,7.0,70,0.00,,,0.00,weatherlink.com 1.10,2013-10-25 09:47:00,
2013-10-25 04:02:00,38.2,28.0,30.34,SW,219,3.0,5.0,68,0.00,,,0.00,weatherlink.com 1.10,2013-10-25 10:02:00,
2013-10-25 04:17:00,39.3,28.0,30.34,SW,221,2.0,7.0,65,0.00,,,0.00,weatherlink.com 1.10,2013-10-25 10:17:00,
2013-10-25 04:32:00,39.8,29.0,30.34,SW,220,0.0,2.0,65,0.00,,,0.00,weatherlink.com 1.10,2013-10-25 10:32:00,
2013-10-25 04:47:00,40.1,29.0,30.34,SW,216,2.0,5.0,64,0.00,,,0.00,weatherlink.com 1.10,2013-10-25 10:47:00,
2013-10-25 05:02:00,41.3,29.0,30.34,SSW,202,3.0,8.0,61,0.00,,,0.00,weatherlink.com 1.10,2013-10-25 11:02:00,
2013-10-25 05:17:00,42.3,29.0,30.34,SSW,206,3.0,7.0,59,0.00,,,0.00,weatherlink.com 1.10,2013-10-25 11:17:00,
2013-10-25 05:32:00,42.8,29.0,30.34,SW,215,6.0,7.0,58,0.00,,,0.00,weatherlink.com 1.10,2013-10-25 11:32:00,
2013-10-25 05:47:00,42.9,29.0,30.34,SW,223,0.0,3.0,58,0.00,,,0.00,weatherlink.com 1.10,2013-10-25 11:47:00,
2013-10-25 06:02:00,42.9,29.0,30.34,SW,223,1.0,3.0,58,0.00,,,0.00,weatherlink.com 1.10,2013-10-25 12:02:00,
2013-10-25 06:17:00,42.8,28.0,30.34,South,176,3.0,4.0,57,0.00,,,0.00,weatherlink.com 1.10,2013-10-25 12:17:00,
2013-10-25 06:32:00,42.9,28.0,30.34,South,176,1.0,4.0,57,0.00,,,0.00,weatherlink.com 1.10,2013-10-25 12:32:00,
2013-10-25 06:47:00,42.7,29.0,30.34,South,176,0.0,0.0,58,0.00,,,0.00,weatherlink.com 1.10,2013-10-25 12:47:00,
2013-10-25 07:02:00,41.6,28.0,30.34,South,176,1.0,2.0,59,0.00,,,0.00,weatherlink.com 1.10,2013-10-25 13:02:00,
2013-10-25 07:17:00,41.4,28.0,30.34,South,175,1.0,4.0,60,0.00,,,0.00,weatherlink.com 1.10,2013-10-25 13:17:00,
2013-10-25 07:32:00,41.3,29.0,30.34,South,175,0.0,0.0,63,0.00,,,0.00,weatherlink.com 1.10,2013-10-25 13:32:00,
2013-10-25 07:47:00,41.2,29.0,30.34,SSW,202,4.0,5.0,63,0.00,,,0.00,weatherlink.com 1.10,2013-10-25 13:47:00,
2013-10-25 08:02:00,41.5,29.0,30.34,SW,217,2.0,4.0,62,0.00,,,0.00,weatherlink.com 1.10,2013-10-25 14:02:00,
2013-10-25 08:17:00,41.9,30.0,30.35,SW,217,1.0,4.0,62,0.00,,,0.00,weatherlink.com 1.10,2013-10-25 14:17:00,
2013-10-25 08:32:00,42.4,30.0,30.35,SW,221,3.0,4.0,61,0.00,,,0.00,weatherlink.com 1.10,2013-10-25 14:32:00,
2013-10-25 08:47:00,43.2,30.0,30.36,SW,216,0.0,5.0,60,0.00,,,0.00,weatherlink.com 1.10,2013-10-25 14:47:00,
2013-10-25 09:02:00,44.0,30.0,30.36,SSW,211,1.0,5.0,59,0.00,,,0.00,weatherlink.com 1.10,2013-10-25 15:02:00,
2013-10-25 09:17:00,44.5,31.0,30.36,SSW,211,0.0,0.0,60,0.00,,,0.00,weatherlink.com 1.10,2013-10-25 15:17:00,
2013-10-25 09:32:00,45.9,31.0,30.36,ESE,120,1.0,6.0,56,0.00,,,0.00,weatherlink.com 1.10,2013-10-25 15:32:00,
2013-10-25 09:47:00,46.0,30.0,30.36,East,94,2.0,6.0,55,0.00,,,0.00,weatherlink.com 1.10,2013-10-25 15:47:00,
2013-10-25 10:17:00,47.2,33.0,30.36,SE,125,2.0,11.0,58,0.00,,,0.00,weatherlink.com 1.10,2013-10-25 16:17:00,
2013-10-25 10:33:00,47.9,34.0,30.36,East,101,0.0,7.0,59,0.00,,,0.00,weatherlink.com 1.10,2013-10-25 16:33:00,
2013-10-25 10:48:00,49.2,35.0,30.36,SE,126,3.0,7.0,58,0.00,,,0.00,weatherlink.com 1.10,2013-10-25 16:48:00,
2013-10-25 11:03:00,50.1,34.0,30.36,ESE,115,0.0,7.0,55,0.00,,,0.00,weatherlink.com 1.10,2013-10-25 17:03:00,
2013-10-25 11:18:00,50.3,34.0,30.36,ESE,113,3.0,7.0,55,0.00,,,0.00,weatherlink.com 1.10,2013-10-25 17:18:00,
2013-10-25 11:33:00,52.7,35.0,30.36,ESE,123,4.0,9.0,51,0.00,,,0.00,weatherlink.com 1.10,2013-10-25 17:33:00,
2013-10-25 11:48:00,54.0,34.0,30.35,ESE,105,2.0,9.0,48,0.00,,,0.00,weatherlink.com 1.10,2013-10-25 17:48:00,
2013-10-25 12:03:00,54.1,35.0,30.35,East,93,7.0,10.0,48,0.00,,,0.00,weatherlink.com 1.10,2013-10-25 18:03:00,
2013-10-25 12:18:00,53.2,35.0,30.35,East,90,1.0,13.0,51,0.00,,,0.00,weatherlink.com 1.10,2013-10-25 18:18:00,
2013-10-25 12:33:00,53.9,36.0,30.34,ENE,71,8.0,13.0,52,0.00,,,0.00,weatherlink.com 1.10,2013-10-25 18:33:00,
2013-10-25 12:48:00,53.9,36.0,30.34,ESE,109,5.0,10.0,51,0.00,,,0.00,weatherlink.com 1.10,2013-10-25 18:48:00,
2013-10-25 13:03:00,52.9,35.0,30.33,ENE,57,0.0,8.0,52,0.00,,,0.00,weatherlink.com 1.10,2013-10-25 19:03:00,
2013-10-25 13:18:00,53.8,36.0,30.33,ENE,78,2.0,7.0,51,0.00,,,0.00,weatherlink.com 1.10,2013-10-25 19:18:00,
2013-10-25 13:33:00,55.6,34.0,30.32,North,5,11.0,11.0,45,0.00,,,0.00,weatherlink.com 1.10,2013-10-25 19:33:00,
2013-10-25 13:48:00,53.5,34.0,30.31,North,355,4.0,9.0,47,0.00,,,0.00,weatherlink.com 1.10,2013-10-25 19:48:00,
2013-10-25 14:03:00,52.1,33.0,30.31,NNW,329,7.0,10.0,48,0.00,,,0.00,weatherlink.com 1.10,2013-10-25 20:03:00,
2013-10-25 14:18:00,51.9,33.0,30.31,NW,313,5.0,10.0,49,0.00,,,0.00,weatherlink.com 1.10,2013-10-25 20:18:00,
2013-10-25 14:33:00,51.6,34.0,30.31,WNW,292,3.0,11.0,51,0.00,,,0.00,weatherlink.com 1.10,2013-10-25 20:33:00,
2013-10-25 14:48:00,50.9,35.0,30.32,SE,124,3.0,9.0,56,0.00,,,0.00,weatherlink.com 1.10,2013-10-25 20:48:00,
2013-10-25 15:03:00,47.2,36.0,30.32,SSE,149,4.0,16.0,66,0.00,,,0.00,weatherlink.com 1.10,2013-10-25 21:03:00,
2013-10-25 15:18:00,46.0,37.0,30.32,SE,132,8.0,15.0,70,0.00,,,0.00,weatherlink.com 1.10,2013-10-25 21:18:00,
2013-10-25 15:33:00,44.4,37.0,30.33,SE,134,14.0,17.0,75,0.00,,,0.00,weatherlink.com 1.10,2013-10-25 21:33:00,
2013-10-25 15:48:00,43.3,38.0,30.33,South,173,13.0,18.0,80,0.00,,,0.00,weatherlink.com 1.10,2013-10-25 21:48:00,
2013-10-25 16:03:00,42.4,38.0,30.33,SSE,159,10.0,20.0,84,0.00,,,0.00,weatherlink.com 1.10,2013-10-25 22:03:00,
2013-10-25 16:18:00,41.6,37.0,30.33,SSE,154,15.0,22.0,83,0.00,,,0.00,weatherlink.com 1.10,2013-10-25 22:18:00,
2013-10-25 16:33:00,41.4,37.0,30.33,SSE,150,15.0,20.0,83,0.00,,,0.00,weatherlink.com 1.10,2013-10-25 22:33:00,
2013-10-25 16:48:00,41.6,36.0,30.34,South,184,6.0,21.0,80,0.00,,,0.00,weatherlink.com 1.10,2013-10-25 22:48:00,
2013-10-25 17:03:00,41.7,36.0,30.34,SSE,164,9.0,16.0,80,0.00,,,0.00,weatherlink.com 1.10,2013-10-25 23:03:00,
2013-10-25 17:18:00,41.9,36.0,30.34,South,180,9.0,16.0,80,0.00,,,0.00,weatherlink.com 1.10,2013-10-25 23:18:00,
2013-10-25 17:33:00,42.2,36.0,30.34,SSE,167,10.0,15.0,79,0.00,,,0.00,weatherlink.com 1.10,2013-10-25 23:33:00,
2013-10-25 17:48:00,42.5,36.0,30.34,SSE,167,4.0,12.0,78,0.00,,,0.00,weatherlink.com 1.10,2013-10-25 23:48:00,
2013-10-25 18:03:00,42.7,36.0,30.34,SSE,154,0.0,10.0,77,0.00,,,0.00,weatherlink.com 1.10,2013-10-26 00:03:00,
2013-10-25 18:18:00,42.8,36.0,30.34,SSE,168,4.0,8.0,78,0.00,,,0.00,weatherlink.com 1.10,2013-10-26 00:18:00,
2013-10-25 18:33:00,42.5,37.0,30.35,South,181,7.0,11.0,80,0.00,,,0.00,weatherlink.com 1.10,2013-10-26 00:33:00,
2013-10-25 18:48:00,41.9,37.0,30.35,SE,142,4.0,12.0,82,0.00,,,0.00,weatherlink.com 1.10,2013-10-26 00:48:00,
2013-10-25 19:03:00,41.7,37.0,30.35,South,170,0.0,9.0,84,0.00,,,0.00,weatherlink.com 1.10,2013-10-26 01:03:00,
2013-10-25 19:18:00,41.4,37.0,30.35,South,171,0.0,2.0,85,0.00,,,0.00,weatherlink.com 1.10,2013-10-26 01:18:00,
2013-10-25 19:33:00,41.2,37.0,30.35,SSW,210,2.0,9.0,86,0.00,,,0.00,weatherlink.com 1.10,2013-10-26 01:33:00,
2013-10-25 19:48:00,41.0,37.0,30.35,SSE,155,5.0,10.0,86,0.00,,,0.00,weatherlink.com 1.10,2013-10-26 01:48:00,
2013-10-25 20:03:00,41.1,37.0,30.35,South,181,10.0,14.0,84,0.00,,,0.00,weatherlink.com 1.10,2013-10-26 02:03:00,
2013-10-25 20:18:00,41.1,37.0,30.35,South,170,7.0,12.0,84,0.00,,,0.00,weatherlink.com 1.10,2013-10-26 02:18:00,
2013-10-25 20:33:00,41.3,36.0,30.35,SSW,197,7.0,11.0,81,0.00,,,0.00,weatherlink.com 1.10,2013-10-26 02:33:00,
2013-10-25 20:48:00,41.6,36.0,30.36,South,188,10.0,11.0,80,0.00,,,0.00,weatherlink.com 1.10,2013-10-26 02:48:00,
2013-10-25 21:03:00,42.1,36.0,30.36,South,178,1.0,10.0,78,0.00,,,0.00,weatherlink.com 1.10,2013-10-26 03:03:00,
2013-10-25 21:18:00,42.2,36.0,30.35,SSE,164,2.0,10.0,78,0.00,,,0.00,weatherlink.com 1.10,2013-10-26 03:18:00,
2013-10-25 21:33:00,42.3,36.0,30.35,SSE,166,7.0,8.0,77,0.00,,,0.00,weatherlink.com 1.10,2013-10-26 03:33:00,
2013-10-25 21:48:00,42.4,35.0,30.36,SSE,161,5.0,7.0,76,0.00,,,0.00,weatherlink.com 1.10,2013-10-26 03:48:00,
2013-10-25 22:03:00,42.5,35.0,30.35,South,190,4.0,10.0,75,0.00,,,0.00,weatherlink.com 1.10,2013-10-26 04:03:00,
2013-10-25 22:18:00,42.4,35.0,30.36,South,178,7.0,8.0,75,0.00,,,0.00,weatherlink.com 1.10,2013-10-26 04:18:00,
2013-10-25 22:33:00,42.2,35.0,30.36,South,185,2.0,8.0,75,0.00,,,0.00,weatherlink.com 1.10,2013-10-26 04:33:00,
2013-10-25 22:48:00,41.8,34.0,30.36,SSE,165,5.0,7.0,75,0.00,,,0.00,weatherlink.com 1.10,2013-10-26 04:48:00,
2013-10-25 23:03:00,41.5,35.0,30.36,South,175,3.0,7.0,78,0.00,,,0.00,weatherlink.com 1.10,2013-10-26 05:03:00,
2013-10-25 23:18:00,41.1,35.0,30.36,South,181,3.0,7.0,79,0.00,,,0.00,weatherlink.com 1.10,2013-10-26 05:18:00,
2013-10-25 23:33:00,40.9,35.0,30.36,SSE,166,3.0,11.0,80,0.00,,,0.00,weatherlink.com 1.10,2013-10-26 05:33:00,
2013-10-25 23:48:00,40.7,35.0,30.36,SSE,157,4.0,8.0,80,0.00,,,0.00,weatherlink.com 1.10,2013-10-26 05:48:00,